createdAt,value
2018-02-10T00:00:31.623Z,10.00
2018-02-10T00:02:58.898Z,10.70
2018-02-10T00:05:26.663Z,11.50
2018-02-10T00:07:54.382Z,10.50
2018-02-10T00:10:21.723Z,10.97
2018-02-10T00:12:49.352Z,9.90
2018-02-10T00:15:16.724Z,8.33
2018-02-10T00:17:44.360Z,11.00
2018-02-10T00:20:11.732Z,10.23
2018-02-10T00:22:39.237Z,8.47
2018-02-10T00:25:06.707Z,8.80
2018-02-10T00:27:34.318Z,9.57
2018-02-10T00:30:01.747Z,7.90
2018-02-10T00:32:29.643Z,10.13
2018-02-10T00:34:57.206Z,8.23
2018-02-10T00:37:24.636Z,7.40
2018-02-10T00:39:52.219Z,8.23
2018-02-10T00:42:19.606Z,7.40
2018-02-10T00:44:46.816Z,7.60
2018-02-10T00:47:14.470Z,8.50
2018-02-10T00:49:41.700Z,7.40
2018-02-10T00:52:09.326Z,7.30
2018-02-10T00:54:36.721Z,7.47
2018-02-10T00:57:04.348Z,7.37
2018-02-10T00:59:31.650Z,7.33
2018-02-10T01:01:59.200Z,5.57
2018-02-10T01:04:26.647Z,6.50
2018-02-10T01:06:53.916Z,5.73
2018-02-10T01:11:48.721Z,7.27
2018-02-10T01:14:16.408Z,6.27
2018-02-10T01:19:11.207Z,5.47
2018-02-10T01:21:38.714Z,8.10
2018-02-10T01:24:06.533Z,6.47
2018-02-10T01:26:33.769Z,5.53
2018-02-10T01:29:01.362Z,6.13
2018-02-10T01:31:28.719Z,7.07
2018-02-10T01:33:56.230Z,6.23
2018-02-10T01:36:23.719Z,6.20
2018-02-10T01:38:51.238Z,5.47
2018-02-10T01:41:18.667Z,5.40
2018-02-10T01:43:45.915Z,6.77
2018-02-10T01:48:40.731Z,5.43
2018-02-10T01:51:08.348Z,4.83
2018-02-10T01:53:35.756Z,5.93
2018-02-10T01:56:03.365Z,5.80
2018-02-10T01:58:30.772Z,6.37
2018-02-10T02:00:58.446Z,6.03
2018-02-10T02:03:25.762Z,4.73
2018-02-10T02:05:53.614Z,5.03
2018-02-10T02:08:21.219Z,6.27
2018-02-10T02:13:16.200Z,6.43
2018-02-10T02:18:11.306Z,4.77
2018-02-10T02:20:38.710Z,4.40
2018-02-10T02:23:06.362Z,6.90
2018-02-10T02:25:33.746Z,5.63
2018-02-10T02:28:01.348Z,6.13
2018-02-10T02:30:28.731Z,5.17
2018-02-10T02:32:56.325Z,5.97
2018-02-10T02:35:23.704Z,6.37
2018-02-10T02:37:51.407Z,4.37
2018-02-10T02:40:18.730Z,5.20
2018-02-10T02:42:46.328Z,4.20
2018-02-10T02:45:13.739Z,4.57
2018-02-10T02:47:41.327Z,4.83
2018-02-10T02:50:08.756Z,4.73
2018-02-10T02:52:36.320Z,5.73
2018-02-10T02:55:03.747Z,4.30
2018-02-10T02:57:31.389Z,4.57
2018-02-10T02:59:58.756Z,4.93
2018-02-10T03:02:26.637Z,4.77
2018-02-10T03:04:53.905Z,5.53
2018-02-10T03:07:21.647Z,4.80
2018-02-10T03:09:49.242Z,4.20
2018-02-10T03:12:16.704Z,4.27
2018-02-10T03:14:44.380Z,3.97
2018-02-10T03:17:11.683Z,3.80
2018-02-10T03:19:39.224Z,5.17
2018-02-10T03:22:06.693Z,4.00
2018-02-10T03:24:34.236Z,3.93
2018-02-10T03:27:01.710Z,4.53
2018-02-10T03:32:03.654Z,4.60
2018-02-10T03:34:30.916Z,4.10
2018-02-10T03:36:58.654Z,4.35
2018-02-10T03:39:26.039Z,4.13
2018-02-10T03:44:21.363Z,4.03
2018-02-10T03:46:48.773Z,3.90
2018-02-10T03:49:16.589Z,3.50
2018-02-10T03:51:43.737Z,3.70
2018-02-10T03:54:11.378Z,3.80
2018-02-10T03:56:38.764Z,3.70
2018-02-10T03:59:06.567Z,4.10
2018-02-10T04:01:33.773Z,4.57
2018-02-10T04:04:01.690Z,3.70
2018-02-10T04:06:29.289Z,3.43
2018-02-10T04:08:56.733Z,4.27
2018-02-10T04:11:24.354Z,3.73
2018-02-10T04:13:51.768Z,4.00
2018-02-10T04:16:19.665Z,3.43
2018-02-10T04:18:46.902Z,3.50
2018-02-10T04:21:14.584Z,3.65
2018-02-10T04:23:41.682Z,4.60
2018-02-10T04:26:09.234Z,4.23
2018-02-10T04:28:36.716Z,3.55
2018-02-10T04:31:04.315Z,3.90
2018-02-10T04:33:31.702Z,3.20
2018-02-10T04:35:59.190Z,3.40
2018-02-10T04:41:06.788Z,3.23
2018-02-10T04:43:34.370Z,3.37
2018-02-10T04:46:01.712Z,3.70
2018-02-10T04:48:29.359Z,3.30
2018-02-10T04:50:56.683Z,3.20
2018-02-10T04:53:24.246Z,3.23
2018-02-10T04:55:51.660Z,3.65
2018-02-10T04:58:19.254Z,3.43
2018-02-10T05:00:46.703Z,3.10
2018-02-10T05:03:14.362Z,3.63
2018-02-10T05:05:41.732Z,4.70
2018-02-10T05:08:09.246Z,3.50
2018-02-10T05:10:36.713Z,4.03
2018-02-10T05:13:04.350Z,3.00
2018-02-10T05:15:31.744Z,3.85
2018-02-10T05:17:59.376Z,3.20
2018-02-10T05:20:26.703Z,3.77
2018-02-10T05:22:54.242Z,3.80
2018-02-10T05:25:21.647Z,2.80
2018-02-10T05:27:49.271Z,3.17
2018-02-10T05:30:16.695Z,3.27
2018-02-10T05:32:44.180Z,3.57
2018-02-10T05:35:11.663Z,4.55
2018-02-10T05:37:38.906Z,3.10
2018-02-10T05:40:06.587Z,3.00
2018-02-10T05:42:33.755Z,2.50
2018-02-10T05:45:01.388Z,2.47
2018-02-10T05:47:28.708Z,3.00
2018-02-10T05:49:56.225Z,3.07
2018-02-10T05:52:23.618Z,3.40
2018-02-10T05:54:50.893Z,2.53
2018-02-10T05:57:18.600Z,3.13
2018-02-10T05:59:45.782Z,3.00
2018-02-10T06:07:02.797Z,3.10
2018-02-10T06:09:30.378Z,3.80
2018-02-10T06:11:57.756Z,3.10
2018-02-10T06:14:25.390Z,2.50
2018-02-10T06:17:16.737Z,2.47
2018-02-10T06:19:44.343Z,2.67
2018-02-10T06:22:11.695Z,2.53
2018-02-10T06:24:39.391Z,3.07
2018-02-10T06:27:06.768Z,3.00
2018-02-10T06:29:34.309Z,2.83
2018-02-10T06:32:01.788Z,3.03
2018-02-10T06:34:29.564Z,3.03
2018-02-10T06:36:56.747Z,3.17
2018-02-10T06:39:24.434Z,2.97
2018-02-10T06:41:51.772Z,3.23
2018-02-10T06:44:19.663Z,3.07
2018-02-10T06:46:47.354Z,3.43
2018-02-10T06:49:14.759Z,3.30
2018-02-10T06:51:42.620Z,2.77
2018-02-10T06:54:09.913Z,2.63
2018-02-10T06:56:37.737Z,3.23
2018-02-10T06:59:05.356Z,5.40
2018-02-10T07:01:32.788Z,10.20
2018-02-10T07:04:00.660Z,15.00
2018-02-10T07:06:28.350Z,14.27
2018-02-10T07:08:55.803Z,11.67
2018-02-10T07:11:23.766Z,11.60
2018-02-10T07:13:51.759Z,10.53
2018-02-10T07:16:19.659Z,10.27
2018-02-10T07:18:47.358Z,9.07
2018-02-10T07:21:14.763Z,9.67
2018-02-10T07:23:42.590Z,10.83
2018-02-10T07:26:09.806Z,10.87
2018-02-10T07:28:37.712Z,10.63
2018-02-10T07:31:05.416Z,8.23
2018-02-10T07:33:32.776Z,8.73
2018-02-10T07:36:00.683Z,7.70
2018-02-10T07:43:23.238Z,6.57
2018-02-10T07:48:17.915Z,6.90
2018-02-10T07:53:13.324Z,6.63
2018-02-10T07:55:40.798Z,6.00
2018-02-10T07:58:08.704Z,6.10
2018-02-10T08:00:36.253Z,6.03
2018-02-10T08:03:03.698Z,6.10
2018-02-10T08:05:31.172Z,6.40
2018-02-10T08:07:58.632Z,8.53
2018-02-10T08:10:26.198Z,7.50
2018-02-10T08:12:53.681Z,6.75
2018-02-10T08:15:21.216Z,6.33
2018-02-10T08:17:48.678Z,6.60
2018-02-10T08:20:16.236Z,6.67
2018-02-10T08:22:43.696Z,6.90
2018-02-10T08:25:11.343Z,7.20
2018-02-10T08:27:38.733Z,7.10
2018-02-10T08:30:06.354Z,5.70
2018-02-10T08:32:33.671Z,6.17
2018-02-10T08:35:01.283Z,5.10
2018-02-10T08:37:28.715Z,5.80
2018-02-10T08:39:56.327Z,4.97
2018-02-10T08:42:23.726Z,4.90
2018-02-10T08:44:51.346Z,5.80
2018-02-10T08:47:18.746Z,5.13
2018-02-10T08:49:46.417Z,5.70
2018-02-10T08:52:13.712Z,5.23
2018-02-10T08:54:41.215Z,5.33
2018-02-10T08:57:08.685Z,6.20
2018-02-10T08:59:36.222Z,5.63
2018-02-10T09:02:03.715Z,5.67
2018-02-10T09:04:31.224Z,5.30
2018-02-10T09:06:58.675Z,5.97
2018-02-10T09:09:26.237Z,4.87
2018-02-10T09:11:53.872Z,6.80
2018-02-10T09:14:21.591Z,7.23
2018-02-10T09:16:48.801Z,7.60
2018-02-10T09:19:16.638Z,6.20
2018-02-10T09:21:43.808Z,6.57
2018-02-10T09:24:11.386Z,5.60
2018-02-10T09:29:18.578Z,5.33
2018-02-10T09:31:45.692Z,5.63
2018-02-10T09:34:13.230Z,8.23
2018-02-10T09:36:40.740Z,8.50
2018-02-10T09:39:08.472Z,8.90
2018-02-10T09:41:35.692Z,7.77
2018-02-10T09:44:02.999Z,6.73
2018-02-10T09:48:57.725Z,7.00
2018-02-10T09:51:25.334Z,7.33
2018-02-10T09:53:52.722Z,7.23
2018-02-10T09:56:20.346Z,6.03
2018-02-10T09:58:47.694Z,6.03
2018-02-10T10:01:15.200Z,5.93
2018-02-10T10:03:42.600Z,5.90
2018-02-10T10:06:09.715Z,5.60
2018-02-10T10:08:37.193Z,5.20
2018-02-10T10:11:04.642Z,5.55
2018-02-10T10:13:31.843Z,5.47
2018-02-10T10:15:59.608Z,4.90
2018-02-10T10:18:26.897Z,6.23
2018-02-10T10:20:54.636Z,5.37
2018-02-10T10:23:22.132Z,4.73
2018-02-10T10:25:49.641Z,4.70
2018-02-10T10:28:17.209Z,5.00
2018-02-10T10:30:44.600Z,5.30
2018-02-10T10:33:11.769Z,4.60
2018-02-10T10:35:39.588Z,4.80
2018-02-10T10:38:06.687Z,5.50
2018-02-10T10:40:34.230Z,5.57
2018-02-10T10:43:01.709Z,5.53
2018-02-10T10:45:29.080Z,4.73
2018-02-10T10:47:56.615Z,4.60
2018-02-10T10:50:23.904Z,4.67
2018-02-10T10:55:18.736Z,4.50
2018-02-10T11:00:26.688Z,4.63
2018-02-10T11:07:26.749Z,4.50
2018-02-10T11:09:54.377Z,4.27
2018-02-10T11:12:21.706Z,4.53
2018-02-10T11:14:49.199Z,3.90
2018-02-10T11:17:16.643Z,4.90
2018-02-10T11:19:43.834Z,5.50
2018-02-10T11:22:11.615Z,4.53
2018-02-10T11:24:38.810Z,7.23
2018-02-10T11:27:06.585Z,5.07
2018-02-10T11:29:33.728Z,4.03
2018-02-10T11:32:01.339Z,4.77
2018-02-10T11:34:28.653Z,3.67
2018-02-10T11:36:56.237Z,6.20
2018-02-10T11:39:23.646Z,4.13
2018-02-10T11:41:50.937Z,5.10
2018-02-10T11:46:45.696Z,4.50
2018-02-10T11:49:12.983Z,5.93
2018-02-10T11:54:07.680Z,25.00
2018-02-10T11:56:35.348Z,17.43
2018-02-10T11:59:02.686Z,21.67
2018-02-10T12:01:30.227Z,20.57
2018-02-10T12:03:57.649Z,23.45
2018-02-10T12:06:25.197Z,28.23
2018-02-10T12:08:52.620Z,21.83
2018-02-10T12:11:19.922Z,19.67
2018-02-10T12:16:14.692Z,19.73
2018-02-10T12:18:42.229Z,26.40
2018-02-10T12:21:09.641Z,49.50
2018-02-10T12:23:37.236Z,55.50
2018-02-10T12:26:04.695Z,75.60
2018-02-10T12:28:32.624Z,83.43
2018-02-10T12:30:59.878Z,76.27
2018-02-10T12:33:27.608Z,103.40
2018-02-10T12:35:54.934Z,111.37
2018-02-10T12:40:49.709Z,114.60
2018-02-10T12:58:01.681Z,113.50
2018-02-10T13:02:56.714Z,96.87
2018-02-10T13:22:36.254Z,63.80
2018-02-10T13:25:03.686Z,56.15
2018-02-10T13:39:48.236Z,45.08
2018-02-10T13:42:15.680Z,46.97
2018-02-10T13:44:43.183Z,42.73
2018-02-10T13:47:10.644Z,40.80
2018-02-10T13:49:38.363Z,43.27
2018-02-10T13:52:05.775Z,41.40
2018-02-10T13:54:33.603Z,38.83
2018-02-10T13:57:01.215Z,39.73
2018-02-10T13:59:28.726Z,38.77
2018-02-10T14:01:56.418Z,36.43
2018-02-10T14:04:23.743Z,37.63
2018-02-10T14:06:51.379Z,40.00
2018-02-10T14:09:18.794Z,34.93
2018-02-10T14:11:46.644Z,35.93
2018-02-10T14:14:14.238Z,33.67
2018-02-10T14:16:41.723Z,32.30
2018-02-10T14:19:09.381Z,32.83
2018-02-10T14:21:36.718Z,35.77
2018-02-10T14:24:04.384Z,32.47
2018-02-10T14:26:31.731Z,30.13
2018-02-10T14:28:59.528Z,29.27
2018-02-10T14:31:26.724Z,29.50
2018-02-10T14:33:54.591Z,30.10
2018-02-10T14:36:21.796Z,28.50
2018-02-10T14:38:49.846Z,27.83
2018-02-10T14:41:17.725Z,31.53
2018-02-10T14:43:45.603Z,31.93
2018-02-10T14:46:13.055Z,29.37
2018-02-10T14:51:08.417Z,30.50
2018-02-10T14:53:35.761Z,28.13
2018-02-10T14:56:03.384Z,27.47
2018-02-10T14:58:30.715Z,30.50
2018-02-10T15:00:58.259Z,28.83
2018-02-10T15:03:25.660Z,27.90
2018-02-10T15:05:53.472Z,28.63
2018-02-10T15:08:20.722Z,27.47
2018-02-10T15:10:48.573Z,24.30
2018-02-10T15:13:15.754Z,26.73
2018-02-10T15:15:43.493Z,27.83
2018-02-10T15:18:10.710Z,28.30
2018-02-10T15:20:38.353Z,29.33
2018-02-10T15:23:05.700Z,26.07
2018-02-10T15:25:33.457Z,22.93
2018-02-10T15:28:00.667Z,24.67
2018-02-10T15:30:28.371Z,24.40
2018-02-10T15:32:55.707Z,23.93
2018-02-10T15:35:23.490Z,27.40
2018-02-10T15:37:50.704Z,26.07
2018-02-10T15:40:18.414Z,27.53
2018-02-10T15:42:45.754Z,23.97
2018-02-10T15:45:13.398Z,21.63
2018-02-10T15:47:40.700Z,24.47
2018-02-10T15:50:08.353Z,24.83
2018-02-10T15:52:35.740Z,24.97
2018-02-10T15:55:03.475Z,23.90
2018-02-10T15:57:30.712Z,23.73
2018-02-10T15:59:58.560Z,26.50
2018-02-10T16:02:25.671Z,24.33
2018-02-10T16:04:52.932Z,24.07
2018-02-10T16:09:47.687Z,24.33
2018-02-10T16:12:15.246Z,23.70
2018-02-10T16:14:42.701Z,22.47
2018-02-10T16:17:10.221Z,23.50
2018-02-10T16:19:37.635Z,22.77
2018-02-10T16:22:04.897Z,22.40
2018-02-10T16:24:32.536Z,27.30
2018-02-10T16:26:59.722Z,24.60
2018-02-10T16:29:27.352Z,22.30
2018-02-10T16:31:54.721Z,21.93
2018-02-10T16:34:22.365Z,20.30
2018-02-10T16:36:49.708Z,21.13
2018-02-10T16:39:17.400Z,20.63
2018-02-10T16:41:44.695Z,20.47
2018-02-10T16:44:12.380Z,20.70
2018-02-10T16:46:39.729Z,21.20
2018-02-10T16:49:07.446Z,18.80
2018-02-10T16:51:34.732Z,18.33
2018-02-10T16:54:02.354Z,21.00
2018-02-10T16:56:29.728Z,18.07
2018-02-10T16:58:57.496Z,21.77
2018-02-10T17:01:24.687Z,19.27
2018-02-10T17:03:52.329Z,18.23
2018-02-10T17:06:19.708Z,18.70
2018-02-10T17:08:47.515Z,17.50
2018-02-10T17:11:14.728Z,18.70
2018-02-10T17:13:42.340Z,16.13
2018-02-10T17:16:09.701Z,17.37
2018-02-10T17:18:37.496Z,16.07
2018-02-10T17:21:04.696Z,16.60
2018-02-10T17:23:32.188Z,14.93
2018-02-10T17:25:59.680Z,16.07
2018-02-10T17:28:26.943Z,15.80
2018-02-10T17:33:21.664Z,15.87
2018-02-10T17:35:49.198Z,15.17
2018-02-10T17:38:16.577Z,15.90
2018-02-10T17:40:43.729Z,15.43
2018-02-10T17:43:11.459Z,15.37
2018-02-10T17:45:38.734Z,16.70
2018-02-10T17:48:06.251Z,14.73
2018-02-10T17:50:33.656Z,14.50
2018-02-10T17:53:00.916Z,13.87
2018-02-10T17:57:55.731Z,13.50
2018-02-10T18:00:23.478Z,16.33
2018-02-10T18:02:50.733Z,18.20
2018-02-10T18:05:18.360Z,19.43
2018-02-10T18:07:45.718Z,16.83
2018-02-10T18:10:13.325Z,16.03
2018-02-10T18:12:40.655Z,16.60
2018-02-10T18:15:08.441Z,15.77
2018-02-10T18:17:35.675Z,15.57
2018-02-10T18:20:02.982Z,15.73
2018-02-10T18:24:57.697Z,14.17
2018-02-10T18:27:25.204Z,13.60
2018-02-10T18:29:52.627Z,13.40
2018-02-10T18:32:19.800Z,12.77
2018-02-10T18:34:47.460Z,12.63
2018-02-10T18:37:14.709Z,13.27
2018-02-10T18:39:42.694Z,12.40
2018-02-10T18:42:10.379Z,13.13
2018-02-10T18:44:37.689Z,13.70
2018-02-10T18:47:05.300Z,12.90
2018-02-10T18:49:32.668Z,12.50
2018-02-10T18:52:00.437Z,12.73
2018-02-10T18:54:27.767Z,12.43
2018-02-10T18:56:55.389Z,12.50
2018-02-10T18:59:22.752Z,12.63
2018-02-10T19:01:50.390Z,12.57
2018-02-10T19:04:17.748Z,12.23
2018-02-10T19:06:45.353Z,11.90
2018-02-10T19:09:12.733Z,12.03
2018-02-10T19:11:40.373Z,12.00
2018-02-10T19:14:07.725Z,11.00
2018-02-10T19:16:35.391Z,10.87
2018-02-10T19:19:02.730Z,11.20
2018-02-10T19:21:30.402Z,11.03
2018-02-10T19:23:57.739Z,11.30
2018-02-10T19:26:25.541Z,11.43
2018-02-10T19:28:52.762Z,11.27
2018-02-10T19:31:20.352Z,10.70
2018-02-10T19:33:47.740Z,10.87
2018-02-10T19:36:15.522Z,10.33
2018-02-10T19:38:42.740Z,10.80
2018-02-10T19:41:10.453Z,10.43
2018-02-10T19:43:37.716Z,10.37
2018-02-10T19:46:05.357Z,11.03
2018-02-10T19:48:32.684Z,10.93
2018-02-10T19:51:00.532Z,12.63
2018-02-10T19:53:27.715Z,12.93
2018-02-10T19:55:55.493Z,10.90
2018-02-10T19:58:22.724Z,10.73
2018-02-10T20:00:50.185Z,11.33
2018-02-10T20:03:17.657Z,11.27
2018-02-10T20:05:45.439Z,10.53
2018-02-10T20:08:12.651Z,11.00
2018-02-10T20:10:40.224Z,10.73
2018-02-10T20:13:07.651Z,11.50
2018-02-10T20:15:34.965Z,10.77
2018-02-10T20:20:29.675Z,11.50
2018-02-10T20:22:57.213Z,11.47
2018-02-10T20:25:24.664Z,10.10
2018-02-10T20:27:52.191Z,10.57
2018-02-10T20:30:19.615Z,10.10
2018-02-10T20:32:46.908Z,10.03
2018-02-10T20:37:41.696Z,9.43
2018-02-10T20:40:09.174Z,9.47
2018-02-10T20:42:36.683Z,9.00
2018-02-10T20:45:04.192Z,9.67
2018-02-10T20:47:31.665Z,9.40
2018-02-10T20:49:59.390Z,9.97
2018-02-10T20:52:26.731Z,8.87
2018-02-10T20:54:54.336Z,9.87
2018-02-10T20:57:23.550Z,9.50
2018-02-10T20:59:50.741Z,9.10
2018-02-10T21:02:18.394Z,11.03
2018-02-10T21:04:45.655Z,11.97
2018-02-10T21:07:13.471Z,12.03
2018-02-10T21:09:40.711Z,11.90
2018-02-10T21:12:08.722Z,12.00
2018-02-10T21:14:36.417Z,11.40
2018-02-10T21:17:03.696Z,11.03
2018-02-10T21:19:31.339Z,13.10
2018-02-10T21:21:58.684Z,10.27
2018-02-10T21:24:25.909Z,10.07
2018-02-10T21:29:20.687Z,10.67
2018-02-10T21:31:48.445Z,9.63
2018-02-10T21:34:15.677Z,10.47
2018-02-10T21:36:43.031Z,9.27
2018-02-10T21:41:37.719Z,9.40
2018-02-10T21:44:05.343Z,9.53
2018-02-10T21:46:32.730Z,9.43
2018-02-10T21:49:00.446Z,9.27
2018-02-10T21:51:27.740Z,8.97
2018-02-10T21:53:55.349Z,9.33
2018-02-10T21:56:22.743Z,9.13
2018-02-10T21:58:50.481Z,8.93
2018-02-10T22:01:17.778Z,8.00
2018-02-10T22:03:45.544Z,8.63
2018-02-10T22:06:12.766Z,8.33
2018-02-10T22:08:40.466Z,8.13
2018-02-10T22:11:07.721Z,8.53
2018-02-10T22:13:35.522Z,8.67
2018-02-10T22:16:02.759Z,8.37
2018-02-10T22:18:30.639Z,7.43
2018-02-10T22:20:57.951Z,7.27
2018-02-10T22:25:52.903Z,7.60
2018-02-10T22:28:20.715Z,8.37
2018-02-10T22:30:48.498Z,8.10
2018-02-10T22:33:15.780Z,7.90
2018-02-10T22:35:43.692Z,7.33
2018-02-10T22:38:11.469Z,7.80
2018-02-10T22:40:38.716Z,7.50
2018-02-10T22:43:06.494Z,6.90
2018-02-10T22:45:33.752Z,7.07
2018-02-10T22:48:01.480Z,7.20
2018-02-10T22:50:28.665Z,6.67
2018-02-10T22:52:56.445Z,7.00
2018-02-10T22:55:23.712Z,6.53
2018-02-10T22:57:51.450Z,7.33
2018-02-10T23:00:18.698Z,6.70
2018-02-10T23:02:46.486Z,7.30
2018-02-10T23:05:13.733Z,6.90
2018-02-10T23:07:41.378Z,6.50
2018-02-10T23:10:08.726Z,6.67
2018-02-10T23:12:36.416Z,6.10
2018-02-10T23:15:03.749Z,6.70
2018-02-10T23:17:31.504Z,5.97
2018-02-10T23:19:58.966Z,6.10
2018-02-10T23:24:53.754Z,6.10
2018-02-10T23:27:21.554Z,6.13
2018-02-10T23:29:48.703Z,7.03
2018-02-10T23:32:16.513Z,6.43
2018-02-10T23:34:43.754Z,5.93
2018-02-10T23:37:11.509Z,6.43
2018-02-10T23:39:38.708Z,6.13
2018-02-10T23:42:06.425Z,5.90
2018-02-10T23:44:33.756Z,5.30
2018-02-10T23:47:01.438Z,5.97
2018-02-10T23:49:28.741Z,5.67
2018-02-10T23:51:56.465Z,5.63
2018-02-10T23:54:23.764Z,5.70
2018-02-10T23:56:51.532Z,5.63
2018-02-10T23:59:18.757Z,5.37
